Istanbul, Turkey

11:17 AM +03 on January 17, 2017 (GMT +0300)
Ataturk | | Change Station

Elev 121 ft 40.97 °N, 28.82 °E | Updated 27 minutes ago

Light Rain
Light Rain
45 °F
Feels Like 39 °F
N
12
Wind Variable Wind from NNW

Today
High -- | Low -- °F
--% Chance of Precip.
Yesterday
High -- | Low -- °F
Precip. -- in
Pressure 30.06 in
Visibility 3.7 miles
Clouds Scattered Clouds 3000 ft
Mostly Cloudy 8000 ft
Windchill 39 °F
Dew Point 43 °F
Humidity 93%
Rainfall 0.00 in
Snow Depth Not available.
8:26 AM 6:03 PM
Waning Gibbous, 74% visible
METAR LTBA 170750Z 34010KT 6000 -RA SCT030 BKN080 07/06 Q1018 NOSIG RMK RWY17L 34007KT RWY05 34007KT 320V060 RWY23 36006KT
Pressure 30.06 in
Visibility 3.7 miles
Clouds Scattered Clouds 3000 ft
Mostly Cloudy 8000 ft
Windchill 39 °F
Dew Point 43 °F
Humidity 93%
Rainfall 0.00 in
Snow Depth Not available.
8:26 AM 6:03 PM
Waning Gibbous, 74% visible
METAR LTBA 170750Z 34010KT 6000 -RA SCT030 BKN080 07/06 Q1018 NOSIG RMK RWY17L 34007KT RWY05 34007KT 320V060 RWY23 36006KT

Get Your Daily Forecast Email!

Thanks for signing up!

Be on the lookout for a verification email in your inbox.

You'll start receiving the daily forecast at 8 AM.

×

10-Day Weather Forecast

×

Almanac

Astronomy

Jan. 17, 2017 Rise Set
Actual Time
Civil Twilight
Nautical Twilight
Astronomical Twilight
Moon
Length of Visible Light
Length of Day
Tomorrow will be .
, % of the Moon is Illuminated

Today's Extremes

Country Highs Country Lows

Community

WunderPhotos

Upload Photos

1,962,540 photos uploaded!

WunderBlog® & News

Nearby

Air Quality

  Air Quality AQ Index Pollutant
Not available.

Snow Depth

Station Depth Elevation

Earthquake Activity

City Distance Mag. Time & Date
Minimum magnitude displayed is 2.5.

Coastal Water Temperatures

Place Temperature

Stations

Nearby Weather Stations

Station Location Temp. Windchill Dew Point Humidity Wind Precip. Elev Updated Type